sensor_id;sensor_type;location;lat;lon;timestamp;temperature;humidity
44435;DHT22;30138;20.964;105.830;2024-03-02T00:02:10;16.50;99.90
44435;DHT22;30138;20.964;105.830;2024-03-02T00:07:18;16.50;99.90
44435;DHT22;30138;20.964;105.830;2024-03-02T00:12:25;16.50;99.90
44435;DHT22;30138;20.964;105.830;2024-03-02T00:17:33;16.50;99.90
44435;DHT22;30138;20.964;105.830;2024-03-02T00:22:41;16.50;99.90
44435;DHT22;30138;20.964;105.830;2024-03-02T00:27:49;16.40;99.90
44435;DHT22;30138;20.964;105.830;2024-03-02T00:32:59;16.50;99.90
44435;DHT22;30138;20.964;105.830;2024-03-02T00:38:06;16.40;99.90
44435;DHT22;30138;20.964;105.830;2024-03-02T00:43:38;16.40;99.90
44435;DHT22;30138;20.964;105.830;2024-03-02T00:48:57;16.40;99.90
44435;DHT22;30138;20.964;105.830;2024-03-02T00:54:07;16.40;99.90
44435;DHT22;30138;20.964;105.830;2024-03-02T00:59:14;16.40;99.90
44435;DHT22;30138;20.964;105.830;2024-03-02T01:04:25;16.40;99.90
44435;DHT22;30138;20.964;105.830;2024-03-02T01:09:31;16.40;99.90
44435;DHT22;30138;20.964;105.830;2024-03-02T01:14:38;16.40;99.90
44435;DHT22;30138;20.964;105.830;2024-03-02T01:19:47;16.40;99.90
44435;DHT22;30138;20.964;105.830;2024-03-02T01:24:54;16.40;99.90
44435;DHT22;30138;20.964;105.830;2024-03-02T01:30:01;16.40;99.90
44435;DHT22;30138;20.964;105.830;2024-03-02T01:35:11;16.40;99.90
44435;DHT22;30138;20.964;105.830;2024-03-02T01:40:19;16.40;99.90
44435;DHT22;30138;20.964;105.830;2024-03-02T01:45:29;16.40;99.90
44435;DHT22;30138;20.964;105.830;2024-03-02T01:50:38;16.40;99.90
44435;DHT22;30138;20.964;105.830;2024-03-02T01:55:46;16.40;99.90
44435;DHT22;30138;20.964;105.830;2024-03-02T02:00:54;16.40;99.90
44435;DHT22;30138;20.964;105.830;2024-03-02T02:06:04;16.40;99.90
44435;DHT22;30138;20.964;105.830;2024-03-02T02:11:11;16.40;99.90
44435;DHT22;30138;20.964;105.830;2024-03-02T02:16:22;16.40;99.90
44435;DHT22;30138;20.964;105.830;2024-03-02T02:21:30;16.40;99.90
44435;DHT22;30138;20.964;105.830;2024-03-02T02:26:37;16.40;99.90
44435;DHT22;30138;20.964;105.830;2024-03-02T02:31:45;16.40;99.90
44435;DHT22;30138;20.964;105.830;2024-03-02T02:36:54;16.40;99.90
44435;DHT22;30138;20.964;105.830;2024-03-02T02:42:01;16.50;99.90
44435;DHT22;30138;20.964;105.830;2024-03-02T02:47:09;16.50;99.90
44435;DHT22;30138;20.964;105.830;2024-03-02T02:52:18;16.50;99.90
44435;DHT22;30138;20.964;105.830;2024-03-02T02:57:24;16.50;99.90
44435;DHT22;30138;20.964;105.830;2024-03-02T03:02:33;16.50;99.90
44435;DHT22;30138;20.964;105.830;2024-03-02T03:07:43;16.50;99.90
44435;DHT22;30138;20.964;105.830;2024-03-02T03:12:53;16.50;99.90
44435;DHT22;30138;20.964;105.830;2024-03-02T03:18:01;16.40;99.90
44435;DHT22;30138;20.964;105.830;2024-03-02T03:23:11;16.40;99.90
44435;DHT22;30138;20.964;105.830;2024-03-02T03:28:20;16.40;99.90
44435;DHT22;30138;20.964;105.830;2024-03-02T03:33:28;16.50;99.90
44435;DHT22;30138;20.964;105.830;2024-03-02T03:38:39;16.50;99.90
44435;DHT22;30138;20.964;105.830;2024-03-02T03:43:45;16.50;99.90
44435;DHT22;30138;20.964;105.830;2024-03-02T03:48:52;16.50;99.90
44435;DHT22;30138;20.964;105.830;2024-03-02T03:54:02;16.50;99.90
44435;DHT22;30138;20.964;105.830;2024-03-02T03:59:09;16.50;99.90
44435;DHT22;30138;20.964;105.830;2024-03-02T04:04:17;16.50;99.90
44435;DHT22;30138;20.964;105.830;2024-03-02T04:09:26;16.50;99.90
44435;DHT22;30138;20.964;105.830;2024-03-02T04:14:33;16.50;99.90
44435;DHT22;30138;20.964;105.830;2024-03-02T04:19:41;16.50;99.90
44435;DHT22;30138;20.964;105.830;2024-03-02T04:24:51;16.60;99.90
44435;DHT22;30138;20.964;105.830;2024-03-02T04:30:01;16.60;99.90
44435;DHT22;30138;20.964;105.830;2024-03-02T04:35:09;16.60;99.90
44435;DHT22;30138;20.964;105.830;2024-03-02T04:40:19;16.70;99.90
44435;DHT22;30138;20.964;105.830;2024-03-02T04:45:26;16.70;99.90
44435;DHT22;30138;20.964;105.830;2024-03-02T04:50:34;16.80;99.90
44435;DHT22;30138;20.964;105.830;2024-03-02T04:55:43;16.80;99.90
44435;DHT22;30138;20.964;105.830;2024-03-02T05:01:07;16.80;99.90
44435;DHT22;30138;20.964;105.830;2024-03-02T05:06:15;16.80;99.90
44435;DHT22;30138;20.964;105.830;2024-03-02T05:11:23;16.90;99.90
44435;DHT22;30138;20.964;105.830;2024-03-02T05:16:49;16.90;99.90
44435;DHT22;30138;20.964;105.830;2024-03-02T05:21:58;16.90;99.90
44435;DHT22;30138;20.964;105.830;2024-03-02T05:27:09;17.00;99.90
44435;DHT22;30138;20.964;105.830;2024-03-02T05:32:16;17.00;99.90
44435;DHT22;30138;20.964;105.830;2024-03-02T05:37:25;17.00;99.90
44435;DHT22;30138;20.964;105.830;2024-03-02T05:42:35;17.00;99.90
44435;DHT22;30138;20.964;105.830;2024-03-02T05:47:44;17.00;99.90
44435;DHT22;30138;20.964;105.830;2024-03-02T05:52:53;17.10;99.90
44435;DHT22;30138;20.964;105.830;2024-03-02T05:58:05;17.10;99.90
44435;DHT22;30138;20.964;105.830;2024-03-02T06:03:26;17.10;99.90
44435;DHT22;30138;20.964;105.830;2024-03-02T06:08:34;17.10;99.90
44435;DHT22;30138;20.964;105.830;2024-03-02T06:13:44;17.10;99.90
44435;DHT22;30138;20.964;105.830;2024-03-02T06:18:53;17.20;99.90
44435;DHT22;30138;20.964;105.830;2024-03-02T06:24:02;17.10;99.90
44435;DHT22;30138;20.964;105.830;2024-03-02T06:29:13;17.20;99.90
44435;DHT22;30138;20.964;105.830;2024-03-02T06:34:21;17.20;99.90
44435;DHT22;30138;20.964;105.830;2024-03-02T06:39:30;17.20;99.90
44435;DHT22;30138;20.964;105.830;2024-03-02T06:44:41;17.20;99.90
44435;DHT22;30138;20.964;105.830;2024-03-02T06:49:49;17.20;99.90
44435;DHT22;30138;20.964;105.830;2024-03-02T06:54:58;17.20;99.90
44435;DHT22;30138;20.964;105.830;2024-03-02T07:00:11;17.30;99.90
44435;DHT22;30138;20.964;105.830;2024-03-02T07:05:22;17.20;99.90
44435;DHT22;30138;20.964;105.830;2024-03-02T07:10:30;17.30;99.90
44435;DHT22;30138;20.964;105.830;2024-03-02T07:15:40;17.30;99.90
44435;DHT22;30138;20.964;105.830;2024-03-02T07:21:09;17.30;99.90
44435;DHT22;30138;20.964;105.830;2024-03-02T07:26:22;17.30;99.90
44435;DHT22;30138;20.964;105.830;2024-03-02T07:31:32;17.30;99.90
44435;DHT22;30138;20.964;105.830;2024-03-02T07:36:40;17.30;99.90
44435;DHT22;30138;20.964;105.830;2024-03-02T07:41:48;17.40;99.90
44435;DHT22;30138;20.964;105.830;2024-03-02T07:46:59;17.40;99.90
44435;DHT22;30138;20.964;105.830;2024-03-02T07:52:07;17.40;99.90
44435;DHT22;30138;20.964;105.830;2024-03-02T07:57:18;17.40;99.90
44435;DHT22;30138;20.964;105.830;2024-03-02T08:02:30;17.40;99.90
44435;DHT22;30138;20.964;105.830;2024-03-02T08:07:41;17.40;99.90
44435;DHT22;30138;20.964;105.830;2024-03-02T08:12:50;17.40;99.90
44435;DHT22;30138;20.964;105.830;2024-03-02T08:18:02;17.40;99.90
44435;DHT22;30138;20.964;105.830;2024-03-02T08:23:13;17.40;99.90
44435;DHT22;30138;20.964;105.830;2024-03-02T08:28:23;17.40;99.90
44435;DHT22;30138;20.964;105.830;2024-03-02T08:33:33;17.40;99.90
44435;DHT22;30138;20.964;105.830;2024-03-02T08:38:44;17.50;99.90
44435;DHT22;30138;20.964;105.830;2024-03-02T08:43:52;17.50;99.90
44435;DHT22;30138;20.964;105.830;2024-03-02T08:49:04;17.50;99.90
44435;DHT22;30138;20.964;105.830;2024-03-02T08:54:12;17.50;99.90
44435;DHT22;30138;20.964;105.830;2024-03-02T08:59:22;17.50;99.90
44435;DHT22;30138;20.964;105.830;2024-03-02T09:04:33;17.50;99.90
44435;DHT22;30138;20.964;105.830;2024-03-02T09:09:46;17.50;99.90
44435;DHT22;30138;20.964;105.830;2024-03-02T09:14:53;17.50;99.90
44435;DHT22;30138;20.964;105.830;2024-03-02T09:20:07;17.50;99.90
44435;DHT22;30138;20.964;105.830;2024-03-02T09:25:17;17.50;99.90
44435;DHT22;30138;20.964;105.830;2024-03-02T09:30:25;17.50;99.90
44435;DHT22;30138;20.964;105.830;2024-03-02T09:35:38;17.50;99.90
44435;DHT22;30138;20.964;105.830;2024-03-02T09:40:49;17.50;99.90
44435;DHT22;30138;20.964;105.830;2024-03-02T09:45:58;17.50;99.90
44435;DHT22;30138;20.964;105.830;2024-03-02T09:51:08;17.50;99.90
44435;DHT22;30138;20.964;105.830;2024-03-02T09:56:17;17.50;99.90
44435;DHT22;30138;20.964;105.830;2024-03-02T10:01:29;17.50;99.90
44435;DHT22;30138;20.964;105.830;2024-03-02T10:06:38;17.50;99.90
44435;DHT22;30138;20.964;105.830;2024-03-02T10:11:46;17.50;99.90
44435;DHT22;30138;20.964;105.830;2024-03-02T10:17:03;17.50;99.90
44435;DHT22;30138;20.964;105.830;2024-03-02T10:22:13;17.50;99.90
44435;DHT22;30138;20.964;105.830;2024-03-02T10:27:27;17.50;99.90
44435;DHT22;30138;20.964;105.830;2024-03-02T10:32:35;17.50;99.90
44435;DHT22;30138;20.964;105.830;2024-03-02T10:37:44;17.50;99.90
44435;DHT22;30138;20.964;105.830;2024-03-02T10:42:51;17.50;99.90
44435;DHT22;30138;20.964;105.830;2024-03-02T10:47:59;17.50;99.90
44435;DHT22;30138;20.964;105.830;2024-03-02T10:53:11;17.50;99.90
44435;DHT22;30138;20.964;105.830;2024-03-02T10:58:19;17.50;99.90
44435;DHT22;30138;20.964;105.830;2024-03-02T11:03:27;17.50;99.90
44435;DHT22;30138;20.964;105.830;2024-03-02T11:08:41;17.50;99.90
44435;DHT22;30138;20.964;105.830;2024-03-02T11:13:52;17.50;99.90
44435;DHT22;30138;20.964;105.830;2024-03-02T11:19:01;17.50;99.90
44435;DHT22;30138;20.964;105.830;2024-03-02T11:24:35;17.50;99.90
44435;DHT22;30138;20.964;105.830;2024-03-02T11:29:45;17.50;99.90
44435;DHT22;30138;20.964;105.830;2024-03-02T11:34:53;17.40;99.90
44435;DHT22;30138;20.964;105.830;2024-03-02T11:40:06;17.40;99.90
44435;DHT22;30138;20.964;105.830;2024-03-02T11:45:18;17.40;99.90
44435;DHT22;30138;20.964;105.830;2024-03-02T11:50:33;17.50;99.90
44435;DHT22;30138;20.964;105.830;2024-03-02T11:55:43;17.40;99.90
44435;DHT22;30138;20.964;105.830;2024-03-02T12:00:52;17.40;99.90
44435;DHT22;30138;20.964;105.830;2024-03-02T12:06:01;17.40;99.90
44435;DHT22;30138;20.964;105.830;2024-03-02T12:11:14;17.40;99.90
44435;DHT22;30138;20.964;105.830;2024-03-02T12:16:25;17.50;99.90
44435;DHT22;30138;20.964;105.830;2024-03-02T12:21:34;17.50;99.90
44435;DHT22;30138;20.964;105.830;2024-03-02T12:26:46;17.50;99.90
44435;DHT22;30138;20.964;105.830;2024-03-02T12:31:54;17.50;99.90
44435;DHT22;30138;20.964;105.830;2024-03-02T12:37:08;17.50;99.90
44435;DHT22;30138;20.964;105.830;2024-03-02T12:42:23;17.50;99.90
44435;DHT22;30138;20.964;105.830;2024-03-02T12:47:32;17.50;99.90
44435;DHT22;30138;20.964;105.830;2024-03-02T12:52:40;17.50;99.90
44435;DHT22;30138;20.964;105.830;2024-03-02T12:57:53;17.50;99.90
44435;DHT22;30138;20.964;105.830;2024-03-02T13:03:02;17.50;99.90
44435;DHT22;30138;20.964;105.830;2024-03-02T13:08:12;17.50;99.90
44435;DHT22;30138;20.964;105.830;2024-03-02T13:13:24;17.50;99.90
44435;DHT22;30138;20.964;105.830;2024-03-02T13:18:35;17.50;99.90
44435;DHT22;30138;20.964;105.830;2024-03-02T13:23:42;17.50;99.90
44435;DHT22;30138;20.964;105.830;2024-03-02T13:29:00;17.50;99.90
44435;DHT22;30138;20.964;105.830;2024-03-02T13:34:14;17.50;99.90
44435;DHT22;30138;20.964;105.830;2024-03-02T13:39:31;17.50;99.90
44435;DHT22;30138;20.964;105.830;2024-03-02T13:44:52;17.50;99.90
44435;DHT22;30138;20.964;105.830;2024-03-02T13:50:02;17.50;99.90
44435;DHT22;30138;20.964;105.830;2024-03-02T13:55:14;17.50;99.90
44435;DHT22;30138;20.964;105.830;2024-03-02T14:00:25;17.50;99.90
44435;DHT22;30138;20.964;105.830;2024-03-02T14:05:34;17.50;99.90
44435;DHT22;30138;20.964;105.830;2024-03-02T14:10:45;17.50;99.90
44435;DHT22;30138;20.964;105.830;2024-03-02T14:16:01;17.50;99.90
44435;DHT22;30138;20.964;105.830;2024-03-02T14:21:15;17.50;99.90
44435;DHT22;30138;20.964;105.830;2024-03-02T14:26:28;17.50;99.90
44435;DHT22;30138;20.964;105.830;2024-03-02T14:31:40;17.50;99.90
44435;DHT22;30138;20.964;105.830;2024-03-02T14:36:52;17.50;99.90
44435;DHT22;30138;20.964;105.830;2024-03-02T14:42:02;17.50;99.90
44435;DHT22;30138;20.964;105.830;2024-03-02T14:47:15;17.50;99.90
44435;DHT22;30138;20.964;105.830;2024-03-02T14:52:26;17.50;99.90
44435;DHT22;30138;20.964;105.830;2024-03-02T14:57:38;17.50;99.90
44435;DHT22;30138;20.964;105.830;2024-03-02T15:02:51;17.50;99.90
44435;DHT22;30138;20.964;105.830;2024-03-02T15:08:02;17.50;99.90
44435;DHT22;30138;20.964;105.830;2024-03-02T15:13:13;17.50;99.90
44435;DHT22;30138;20.964;105.830;2024-03-02T15:18:33;17.50;99.90
44435;DHT22;30138;20.964;105.830;2024-03-02T15:23:49;17.50;99.90
44435;DHT22;30138;20.964;105.830;2024-03-02T15:28:58;17.50;99.90
44435;DHT22;30138;20.964;105.830;2024-03-02T15:34:14;17.50;99.90
44435;DHT22;30138;20.964;105.830;2024-03-02T15:39:23;17.50;99.90
44435;DHT22;30138;20.964;105.830;2024-03-02T15:44:37;17.50;99.90
44435;DHT22;30138;20.964;105.830;2024-03-02T15:49:50;17.50;99.90
44435;DHT22;30138;20.964;105.830;2024-03-02T15:55:10;17.40;99.90
44435;DHT22;30138;20.964;105.830;2024-03-02T16:00:22;17.50;99.90
44435;DHT22;30138;20.964;105.830;2024-03-02T16:05:37;17.50;99.90
44435;DHT22;30138;20.964;105.830;2024-03-02T16:10:45;17.50;99.90
44435;DHT22;30138;20.964;105.830;2024-03-02T16:15:55;17.50;99.90
44435;DHT22;30138;20.964;105.830;2024-03-02T16:21:10;17.50;99.90
44435;DHT22;30138;20.964;105.830;2024-03-02T16:26:24;17.40;99.90
44435;DHT22;30138;20.964;105.830;2024-03-02T16:31:37;17.40;99.90
44435;DHT22;30138;20.964;105.830;2024-03-02T16:37:07;17.40;99.90
44435;DHT22;30138;20.964;105.830;2024-03-02T16:42:17;17.40;99.90
44435;DHT22;30138;20.964;105.830;2024-03-02T16:47:28;17.40;99.90
44435;DHT22;30138;20.964;105.830;2024-03-02T16:52:56;17.40;99.90
44435;DHT22;30138;20.964;105.830;2024-03-02T16:58:07;17.40;99.90
44435;DHT22;30138;20.964;105.830;2024-03-02T17:03:15;17.40;99.90
44435;DHT22;30138;20.964;105.830;2024-03-02T17:08:34;17.40;99.90
44435;DHT22;30138;20.964;105.830;2024-03-02T17:13:45;17.40;99.90
44435;DHT22;30138;20.964;105.830;2024-03-02T17:19:06;17.40;99.90
44435;DHT22;30138;20.964;105.830;2024-03-02T17:24:16;17.40;99.90
44435;DHT22;30138;20.964;105.830;2024-03-02T17:29:35;17.40;99.90
44435;DHT22;30138;20.964;105.830;2024-03-02T17:34:44;17.40;99.90
44435;DHT22;30138;20.964;105.830;2024-03-02T17:40:10;17.40;99.90
44435;DHT22;30138;20.964;105.830;2024-03-02T17:45:21;17.40;99.90
44435;DHT22;30138;20.964;105.830;2024-03-02T17:50:45;17.40;99.90
44435;DHT22;30138;20.964;105.830;2024-03-02T17:56:03;17.40;99.90
44435;DHT22;30138;20.964;105.830;2024-03-02T18:01:17;17.40;99.90
44435;DHT22;30138;20.964;105.830;2024-03-02T18:06:28;17.40;99.90
44435;DHT22;30138;20.964;105.830;2024-03-02T18:11:38;17.40;99.90
44435;DHT22;30138;20.964;105.830;2024-03-02T18:16:49;17.40;99.90
44435;DHT22;30138;20.964;105.830;2024-03-02T18:21:57;17.40;99.90
44435;DHT22;30138;20.964;105.830;2024-03-02T18:27:08;17.40;99.90
44435;DHT22;30138;20.964;105.830;2024-03-02T18:32:18;17.40;99.90
44435;DHT22;30138;20.964;105.830;2024-03-02T18:37:29;17.40;99.90
44435;DHT22;30138;20.964;105.830;2024-03-02T18:42:40;17.40;99.90
44435;DHT22;30138;20.964;105.830;2024-03-02T18:47:49;17.40;99.90
44435;DHT22;30138;20.964;105.830;2024-03-02T18:52:59;17.40;99.90
44435;DHT22;30138;20.964;105.830;2024-03-02T18:58:13;17.40;99.90
44435;DHT22;30138;20.964;105.830;2024-03-02T19:03:23;17.40;99.90
44435;DHT22;30138;20.964;105.830;2024-03-02T19:08:33;17.40;99.90
44435;DHT22;30138;20.964;105.830;2024-03-02T19:13:43;17.40;99.90
44435;DHT22;30138;20.964;105.830;2024-03-02T19:18:51;17.40;99.90
44435;DHT22;30138;20.964;105.830;2024-03-02T19:24:00;17.40;99.90
44435;DHT22;30138;20.964;105.830;2024-03-02T19:29:09;17.40;99.90
44435;DHT22;30138;20.964;105.830;2024-03-02T19:34:16;17.40;99.90
44435;DHT22;30138;20.964;105.830;2024-03-02T19:39:26;17.40;99.90
44435;DHT22;30138;20.964;105.830;2024-03-02T19:44:36;17.40;99.90
44435;DHT22;30138;20.964;105.830;2024-03-02T19:49:46;17.40;99.90
44435;DHT22;30138;20.964;105.830;2024-03-02T19:54:52;17.40;99.90
44435;DHT22;30138;20.964;105.830;2024-03-02T20:00:03;17.30;99.90
44435;DHT22;30138;20.964;105.830;2024-03-02T20:05:11;17.40;99.90
44435;DHT22;30138;20.964;105.830;2024-03-02T20:10:18;17.40;99.90
44435;DHT22;30138;20.964;105.830;2024-03-02T20:15:29;17.30;99.90
44435;DHT22;30138;20.964;105.830;2024-03-02T20:20:36;17.30;99.90
44435;DHT22;30138;20.964;105.830;2024-03-02T20:25:43;17.30;99.90
44435;DHT22;30138;20.964;105.830;2024-03-02T20:30:52;17.40;99.90
44435;DHT22;30138;20.964;105.830;2024-03-02T20:35:59;17.30;99.90
44435;DHT22;30138;20.964;105.830;2024-03-02T20:41:13;17.30;99.90
44435;DHT22;30138;20.964;105.830;2024-03-02T20:46:22;17.30;99.90
44435;DHT22;30138;20.964;105.830;2024-03-02T20:51:29;17.30;99.90
44435;DHT22;30138;20.964;105.830;2024-03-02T20:56:36;17.30;99.90
44435;DHT22;30138;20.964;105.830;2024-03-02T21:01:47;17.30;99.90
44435;DHT22;30138;20.964;105.830;2024-03-02T21:06:54;17.30;99.90
44435;DHT22;30138;20.964;105.830;2024-03-02T21:12:03;17.30;99.90
44435;DHT22;30138;20.964;105.830;2024-03-02T21:17:14;17.30;99.90
44435;DHT22;30138;20.964;105.830;2024-03-02T21:22:22;17.30;99.90
44435;DHT22;30138;20.964;105.830;2024-03-02T21:27:29;17.30;99.90
44435;DHT22;30138;20.964;105.830;2024-03-02T21:32:38;17.30;99.90
44435;DHT22;30138;20.964;105.830;2024-03-02T21:37:45;17.30;99.90
44435;DHT22;30138;20.964;105.830;2024-03-02T21:42:54;17.30;99.90
44435;DHT22;30138;20.964;105.830;2024-03-02T21:48:04;17.30;99.90
44435;DHT22;30138;20.964;105.830;2024-03-02T21:53:11;17.30;99.90
44435;DHT22;30138;20.964;105.830;2024-03-02T21:58:19;17.30;99.90
44435;DHT22;30138;20.964;105.830;2024-03-02T22:03:29;17.30;99.90
44435;DHT22;30138;20.964;105.830;2024-03-02T22:08:36;17.30;99.90
44435;DHT22;30138;20.964;105.830;2024-03-02T22:13:44;17.30;99.90
44435;DHT22;30138;20.964;105.830;2024-03-02T22:18:56;17.30;99.90
44435;DHT22;30138;20.964;105.830;2024-03-02T22:24:03;17.30;99.90
44435;DHT22;30138;20.964;105.830;2024-03-02T22:29:10;17.30;99.90
44435;DHT22;30138;20.964;105.830;2024-03-02T22:34:21;17.30;99.90
44435;DHT22;30138;20.964;105.830;2024-03-02T22:39:29;17.30;99.90
44435;DHT22;30138;20.964;105.830;2024-03-02T22:44:35;17.30;99.90
44435;DHT22;30138;20.964;105.830;2024-03-02T22:49:44;17.30;99.90
44435;DHT22;30138;20.964;105.830;2024-03-02T22:54:51;17.20;99.90
44435;DHT22;30138;20.964;105.830;2024-03-02T22:59:59;17.30;99.90
44435;DHT22;30138;20.964;105.830;2024-03-02T23:05:20;17.20;99.90
44435;DHT22;30138;20.964;105.830;2024-03-02T23:10:27;17.20;99.90
44435;DHT22;30138;20.964;105.830;2024-03-02T23:15:35;17.30;99.90
44435;DHT22;30138;20.964;105.830;2024-03-02T23:20:44;17.30;99.90
44435;DHT22;30138;20.964;105.830;2024-03-02T23:25:51;17.20;99.90
44435;DHT22;30138;20.964;105.830;2024-03-02T23:30:59;17.20;99.90
44435;DHT22;30138;20.964;105.830;2024-03-02T23:36:08;17.20;99.90
44435;DHT22;30138;20.964;105.830;2024-03-02T23:41:16;17.20;99.90
44435;DHT22;30138;20.964;105.830;2024-03-02T23:46:23;17.20;99.90
44435;DHT22;30138;20.964;105.830;2024-03-02T23:51:34;17.20;99.90
44435;DHT22;30138;20.964;105.830;2024-03-02T23:56:41;17.20;99.90
